Trefriw, United Kingdom
Current Conditions -  °F | °C
As of 3:50 AM on Wednesday 26 Nov 2014 (Local Time) from EGOV Reporting Station
Overcast Overcast  
Wind Chill: 40°   Ceiling: 4500
Heat Index: 45°   Visibility: 6mi
Dew Point: 41°   Wind: 8mph
Humidity: 87%   Direction: 60°ENE
Pressure: 29.97"   Gusts: NA
Location:  53.13°N, 3.81°W
Report Text: EGOV 260350Z 06007KT 9999 OVC045 07/05 Q1015 BLU
Loading
Personal Weather Stations






























Interactive Weather Map New forecast layout! Learn more

10-Day Weather Forecast

Advertisements
Track Severe Weather on mobile